Bookmark and Share
Track history (hours):
 

Oceanographic research ship Charles Darwin (UK)

Detailed information on ship capabilities available from University of Delaware's Ocean Information Center.

Last reported at 2014-Apr-20 18:24 UTC. Time now 2014-Apr-23 09:22 UTC.
Position N 59°10' E 002°10'.

Length 70 m; draft 5.7 m.

Type: Cargo ship. MMSI: 235011460.

NotesDate/timePositionNaut miles runAvg speedWind from/ knotsBaromVisibWave heightAir tempDewpointWater temp
2014-Apr-20 18:24N 59°10' E 002°10'3 0.6
2014-Apr-20 12:15N 59°09' E 002°16'3 0.4
2014-Apr-20 05:15N 59°07' E 002°12'1 0.0
2014-Apr-18 22:07N 59°08' E 002°13'5 0.3
2014-Apr-18 08:25N 59°12' E 002°08'56 2.5
2014-Apr-17 10:22N 58°16' E 002°00'23110.9
2014-Apr-16 13:18N 54°28' E 000°54'911.5
2014-Apr-16 12:32N 54°20' E 000°50'1411.8
2014-Apr-16 11:19N 54°06' E 000°43'912.1
2014-Apr-16 10:33N 53°57' E 000°39'1312.1
2014-Apr-16 09:26N 53°45' E 000°29'1212.4
2014-Apr-16 08:30N 53°35' E 000°19'910.0
2014-Apr-16 07:33N 53°35' E 000°03'1110.5
2014-Apr-16 06:33N 53°41' W 000°12'6 5.4
2014-Apr-16 05:26N 53°44' W 000°21'0 0.4
2014-Apr-16 04:24N 53°44' W 000°21'0 0.0
2014-Apr-16 03:26N 53°44' W 000°21'0 0.0
2014-Apr-16 02:26N 53°44' W 000°21'0 0.0
2014-Apr-16 01:26N 53°44' W 000°21'0 0.0
2014-Apr-16 00:29N 53°44' W 000°21'0 0.0
2014-Apr-15 23:30N 53°44' W 000°21'0 0.0
2014-Apr-15 22:08N 53°44' W 000°21'0 0.0
2014-Apr-15 21:26N 53°44' W 000°21'0 0.0
2014-Apr-15 20:18N 53°44' W 000°21'0 0.0
2014-Apr-15 19:29N 53°44' W 000°21'0 0.0
2014-Apr-15 18:20N 53°44' W 000°21'0 0.0
2014-Apr-15 17:30N 53°44' W 000°21'0 0.0
2014-Apr-15 16:32N 53°44' W 000°21'0 0.0
2014-Apr-15 15:23N 53°44' W 000°21'0 0.0
2014-Apr-15 14:23N 53°44' W 000°21'0 0.0
2014-Apr-15 06:30N 53°44' W 000°21'0 0.0
2014-Apr-15 05:31N 53°44' W 000°21'0 0.0
2014-Apr-15 03:33N 53°44' W 000°21'0 0.0
2014-Apr-15 02:30N 53°44' W 000°21'0 0.0
2014-Apr-15 01:33N 53°44' W 000°21'0 0.0
2014-Apr-15 00:33N 53°44' W 000°21'0 0.0
2014-Apr-14 22:33N 53°44' W 000°21'0 0.0
2014-Apr-14 13:29N 53°44' W 000°21'0 0.0
2014-Apr-14 10:29N 53°44' W 000°21'0 0.0
2014-Apr-14 09:32N 53°44' W 000°21'0 0.0
2014-Apr-14 08:32N 53°44' W 000°21'0 0.0
2014-Apr-13 22:32N 53°44' W 000°21'0 0.0
2014-Apr-13 21:20N 53°44' W 000°21'0 0.0
2014-Apr-13 20:32N 53°44' W 000°21'0 0.0
2014-Apr-13 19:32N 53°44' W 000°21'0 0.0
2014-Apr-13 18:20N 53°44' W 000°21'0 0.0
2014-Apr-13 17:17N 53°44' W 000°21'1 0.7
2014-Apr-13 16:32N 53°44' W 000°20'3 3.4
2014-Apr-13 15:32N 53°43' W 000°15'1211.7
2014-Apr-13 14:33N 53°36' W 000°00'1111.5
2014-Apr-13 13:33N 53°33' E 000°18'6 5.6
2014-Apr-13 12:33N 53°33' E 000°28'4 3.7
2014-Apr-13 11:33N 53°33' E 000°34'2 2.5
2014-Apr-13 10:33N 53°33' E 000°30'2 2.5
2014-Apr-13 09:33N 53°34' E 000°34'119 4.4
2014-Apr-12 06:26N 53°15' E 003°51'34 1.2
2014-Apr-11 03:11N 53°45' E 004°14'17 9.0
2014-Apr-11 01:19N 53°29' E 004°21'14 3.7
2014-Apr-10 21:23N 53°15' E 004°14'0 0.3
2014-Apr-10 20:26N 53°15' E 004°14'0 0.0
2014-Apr-10 19:29N 53°15' E 004°14'0 0.2
2014-Apr-10 18:32N 53°15' E 004°14'  

Dump ship's entire track history

sailing weather and tide predictions

Charles Darwin — GDLS — position and weather